Time;durP1;ratioP1;P1;durP2;ratioP2;P2;SDS_P1;SDS_P2;PMS_P1;PMS_P2;Temp;Humidity;BMP_temperature;BMP_pressure;BME280_temperature;BME280_humidity;BME280_pressure;Samples;Min_cycle;Max_cycle;Signal;HPM_P1;HPM_P2
2022/02/28 00:01:22;;;;;;;12.48;4.45;;;1.30;99.90;;;;;;5046399;28;20068;-59
2022/02/28 00:03:54;;;;;;;7.93;4.63;;;1.30;99.90;;;;;;5010918;28;20523;-57
2022/02/28 00:06:20;;;;;;;13.15;6.00;;;1.30;99.90;;;;;;5035322;28;20067;-61
2022/02/28 00:08:46;;;;;;;8.90;5.40;;;1.30;99.90;;;;;;5047853;28;20036;-53
2022/02/28 00:11:13;;;;;;;21.67;5.05;;;1.30;99.90;;;;;;5051134;28;20072;-65
2022/02/28 00:13:39;;;;;;;10.90;4.95;;;1.30;99.90;;;;;;5069128;28;20049;-56
2022/02/28 00:16:06;;;;;;;11.35;6.53;;;1.30;99.90;;;;;;5068123;28;20040;-60
2022/02/28 00:18:33;;;;;;;10.75;5.30;;;1.30;99.90;;;;;;5050782;28;20396;-56
2022/02/28 00:20:59;;;;;;;9.20;4.80;;;1.30;99.90;;;;;;5050040;28;20580;-60
2022/02/28 00:23:26;;;;;;;8.70;6.13;;;1.20;99.90;;;;;;5051344;28;20095;-55
2022/02/28 00:25:53;;;;;;;10.60;5.30;;;1.20;99.90;;;;;;5055465;28;20064;-54
2022/02/28 00:28:20;;;;;;;8.50;4.18;;;1.10;99.90;;;;;;5051044;28;20044;-61
2022/02/28 00:30:46;;;;;;;12.02;4.63;;;1.20;99.90;;;;;;5050159;28;20056;-54
2022/02/28 00:33:12;;;;;;;10.07;5.13;;;1.20;99.90;;;;;;5068022;28;20053;-64
2022/02/28 00:35:39;;;;;;;10.15;4.88;;;1.20;99.90;;;;;;5050674;28;20433;-54
2022/02/28 00:38:07;;;;;;;12.48;6.03;;;1.10;99.90;;;;;;5049687;28;20040;-54
2022/02/28 00:40:33;;;;;;;9.10;5.90;;;1.10;99.90;;;;;;5050247;28;20505;-62
2022/02/28 00:43:00;;;;;;;13.20;6.53;;;1.20;99.90;;;;;;5066123;28;20086;-65
2022/02/28 00:45:26;;;;;;;10.35;5.50;;;1.20;99.90;;;;;;5051171;28;20354;-61
2022/02/28 00:47:52;;;;;;;10.30;5.47;;;1.20;99.90;;;;;;5017049;28;20076;-61
2022/02/28 00:50:19;;;;;;;11.38;5.72;;;1.10;99.90;;;;;;5067881;28;20071;-52
2022/02/28 00:52:44;;;;;;;13.02;5.97;;;1.00;99.90;;;;;;5049989;28;20584;-56
2022/02/28 00:55:12;;;;;;;16.98;6.90;;;1.00;99.90;;;;;;5049639;28;20127;-60
2022/02/28 00:57:39;;;;;;;13.80;5.95;;;0.90;99.90;;;;;;5050235;28;20045;-55
2022/02/28 01:00:11;;;;;;;9.00;5.40;;;0.90;99.90;;;;;;5049672;28;20052;-56
2022/02/28 01:02:37;;;;;;;15.45;6.55;;;0.90;99.90;;;;;;5048068;28;20036;-52
2022/02/28 01:05:03;;;;;;;12.07;7.07;;;0.80;99.90;;;;;;5061685;28;20044;-53
2022/02/28 01:07:29;;;;;;;9.38;6.88;;;0.80;99.90;;;;;;5047763;28;20036;-65
2022/02/28 01:09:55;;;;;;;12.10;6.63;;;0.80;99.90;;;;;;5043275;28;20395;-59
2022/02/28 01:12:21;;;;;;;16.55;6.70;;;0.80;99.90;;;;;;5049465;28;20372;-61
2022/02/28 01:14:48;;;;;;;11.18;6.45;;;0.70;99.90;;;;;;5025947;28;20139;-61
2022/02/28 01:17:15;;;;;;;14.50;6.65;;;0.70;99.90;;;;;;5049255;28;20048;-56
2022/02/28 01:19:41;;;;;;;14.18;6.72;;;0.60;99.90;;;;;;5048680;28;20060;-60
2022/02/28 01:22:10;;;;;;;10.02;6.90;;;0.60;99.90;;;;;;5047828;28;20387;-53
2022/02/28 01:24:39;;;;;;;11.85;6.20;;;0.60;99.90;;;;;;5031385;28;20121;-57
2022/02/28 01:27:06;;;;;;;11.65;6.88;;;0.50;99.90;;;;;;5062593;28;20043;-52
2022/02/28 01:29:31;;;;;;;15.45;7.45;;;0.50;99.90;;;;;;5049041;28;20050;-66
2022/02/28 01:31:57;;;;;;;13.93;6.53;;;0.40;99.90;;;;;;5049274;28;20044;-57
2022/02/28 01:34:23;;;;;;;11.02;6.53;;;0.40;99.90;;;;;;5016640;28;20044;-49
2022/02/28 01:36:49;;;;;;;15.63;6.90;;;0.30;99.90;;;;;;5042562;28;20110;-55
2022/02/28 01:39:15;;;;;;;12.43;6.80;;;0.30;99.90;;;;;;5048873;28;20438;-57
2022/02/28 01:41:41;;;;;;;13.93;6.30;;;0.20;99.90;;;;;;5032835;28;20084;-58
2022/02/28 01:44:08;;;;;;;13.48;6.78;;;0.20;99.90;;;;;;5032652;28;20045;-49
2022/02/28 01:46:35;;;;;;;12.70;6.97;;;0.30;99.90;;;;;;5066935;28;20059;-59
2022/02/28 01:49:01;;;;;;;12.48;7.00;;;0.20;99.90;;;;;;5032823;28;20048;-57
2022/02/28 01:51:28;;;;;;;9.13;6.15;;;0.20;99.90;;;;;;5049416;28;20558;-50
2022/02/28 01:53:54;;;;;;;14.13;6.47;;;0.10;99.90;;;;;;5062055;28;20037;-50
2022/02/28 01:56:21;;;;;;;17.25;6.57;;;0.10;99.90;;;;;;5044801;28;20580;-62
2022/02/28 01:58:47;;;;;;;10.93;6.47;;;0.10;99.90;;;;;;5048975;28;20066;-58
2022/02/28 02:01:13;;;;;;;15.13;7.43;;;0.10;99.90;;;;;;5048650;28;20091;-59
2022/02/28 02:03:39;;;;;;;12.85;6.78;;;0.00;99.90;;;;;;5065563;28;20072;-53
2022/02/28 02:06:09;;;;;;;13.20;6.70;;;0.00;99.90;;;;;;5043750;28;20076;-53
2022/02/28 02:08:36;;;;;;;12.38;6.50;;;0.00;99.90;;;;;;5032680;28;20124;-57
2022/02/28 02:11:03;;;;;;;12.90;7.00;;;0.00;99.90;;;;;;5032408;28;20037;-56
2022/02/28 02:13:31;;;;;;;12.85;6.43;;;0.00;99.90;;;;;;5047743;28;20410;-62
2022/02/28 02:15:58;;;;;;;12.10;7.07;;;0.10;99.90;;;;;;5028561;28;20375;-60
2022/02/28 02:18:25;;;;;;;13.88;6.65;;;0.20;99.90;;;;;;5047893;28;20139;-52
2022/02/28 02:20:51;;;;;;;13.82;6.93;;;0.10;99.90;;;;;;5048236;28;20109;-59
2022/02/28 02:23:17;;;;;;;11.93;5.97;;;0.20;99.90;;;;;;5048222;28;20036;-52
2022/02/28 02:25:44;;;;;;;12.18;6.32;;;0.20;99.90;;;;;;5072077;28;20044;-51
2022/02/28 02:28:15;;;;;;;15.85;6.93;;;0.10;99.90;;;;;;5061043;28;20055;-56
2022/02/28 02:30:49;;;;;;;13.20;7.55;;;0.20;99.90;;;;;;5047761;28;20069;-56
2022/02/28 02:33:16;;;;;;;15.00;7.38;;;0.20;99.90;;;;;;5060751;28;20044;-55
2022/02/28 02:35:58;;;;;;;10.70;7.05;;;0.20;99.90;;;;;;5047507;28;20059;-58
2022/02/28 02:38:27;;;;;;;11.70;7.28;;;0.10;99.90;;;;;;5044307;28;20394;-56
2022/02/28 02:40:53;;;;;;;10.43;6.90;;;0.10;99.90;;;;;;5064679;28;20048;-55
2022/02/28 02:43:20;;;;;;;13.05;8.63;;;0.00;99.90;;;;;;5063398;28;20033;-57
2022/02/28 02:45:45;;;;;;;13.88;6.93;;;0.00;99.90;;;;;;5048186;28;20045;-54
2022/02/28 02:48:16;;;;;;;10.25;6.88;;;0.00;99.90;;;;;;5047094;28;20110;-55
2022/02/28 02:50:42;;;;;;;17.33;8.27;;;-0.10;99.90;;;;;;5066191;28;20072;-51
2022/02/28 02:53:08;;;;;;;15.82;8.02;;;-0.10;99.90;;;;;;5047053;28;20083;-53
2022/02/28 02:55:34;;;;;;;13.05;8.02;;;-0.20;99.90;;;;;;5047681;28;20079;-49
2022/02/28 02:58:00;;;;;;;17.80;7.60;;;-0.20;99.90;;;;;;5047726;28;20451;-49
2022/02/28 03:00:27;;;;;;;12.15;7.47;;;-0.10;99.90;;;;;;5048301;28;20453;-57
2022/02/28 03:02:53;;;;;;;12.55;6.95;;;-0.20;99.90;;;;;;5047722;28;20048;-53
2022/02/28 03:05:18;;;;;;;19.80;8.13;;;-0.30;99.90;;;;;;5062003;28;20029;-58
2022/02/28 03:07:44;;;;;;;12.43;7.88;;;-0.20;99.90;;;;;;5065159;28;20040;-51
2022/02/28 03:10:10;;;;;;;14.32;6.68;;;-0.20;99.90;;;;;;5047070;28;20506;-51
2022/02/28 03:12:36;;;;;;;18.77;7.90;;;-0.20;99.90;;;;;;5047635;28;20548;-61
2022/02/28 03:15:03;;;;;;;15.10;7.55;;;-0.20;99.90;;;;;;5061603;28;20044;-54
2022/02/28 03:17:28;;;;;;;17.75;7.60;;;-0.30;99.90;;;;;;5046697;28;20494;-53
2022/02/28 03:19:54;;;;;;;17.40;8.38;;;-0.20;99.90;;;;;;5048054;28;20127;-60
2022/02/28 03:22:20;;;;;;;19.35;8.80;;;-0.30;99.90;;;;;;5047745;28;20070;-55
2022/02/28 03:24:46;;;;;;;15.20;8.10;;;-0.30;99.90;;;;;;5047645;28;20041;-55
2022/02/28 03:27:11;;;;;;;13.25;7.63;;;-0.30;99.90;;;;;;5030726;28;20040;-60
2022/02/28 03:29:37;;;;;;;20.63;8.18;;;-0.30;99.90;;;;;;5059174;28;20071;-52
2022/02/28 03:32:03;;;;;;;14.55;7.72;;;-0.40;99.90;;;;;;5030400;28;20456;-57
2022/02/28 03:34:29;;;;;;;12.45;7.63;;;-0.40;99.90;;;;;;5065933;28;20052;-57
2022/02/28 03:36:55;;;;;;;15.07;8.25;;;-0.50;99.90;;;;;;5030875;28;20056;-49
2022/02/28 03:39:23;;;;;;;13.18;8.32;;;-0.50;99.90;;;;;;5047212;28;20083;-51
2022/02/28 03:41:49;;;;;;;17.17;7.35;;;-0.40;99.90;;;;;;5026119;28;20045;-56
2022/02/28 03:44:15;;;;;;;15.50;8.52;;;-0.40;99.90;;;;;;5050228;28;20099;-60
2022/02/28 03:46:41;;;;;;;20.00;8.85;;;-0.40;99.90;;;;;;5052036;28;20387;-51
2022/02/28 03:49:07;;;;;;;14.75;7.75;;;-0.40;99.90;;;;;;5033662;28;20083;-55
2022/02/28 03:51:33;;;;;;;16.30;8.52;;;-0.40;99.90;;;;;;5052300;28;20092;-49
2022/02/28 03:53:59;;;;;;;16.38;8.40;;;-0.40;99.90;;;;;;5068501;28;20036;-54
2022/02/28 03:56:24;;;;;;;22.90;9.45;;;-0.50;99.90;;;;;;5051600;28;20037;-55
2022/02/28 03:58:50;;;;;;;14.68;8.70;;;-0.50;99.90;;;;;;5050212;28;20139;-54
2022/02/28 04:01:16;;;;;;;14.82;8.18;;;-0.60;99.90;;;;;;5049190;28;20116;-64
2022/02/28 04:03:42;;;;;;;16.83;9.75;;;-0.60;99.90;;;;;;5051079;28;20332;-49
2022/02/28 04:06:08;;;;;;;16.17;9.15;;;-0.60;99.90;;;;;;5033905;28;20875;-63
2022/02/28 04:08:34;;;;;;;23.05;9.00;;;-0.60;99.90;;;;;;5051478;28;20553;-52
2022/02/28 04:11:00;;;;;;;18.83;9.10;;;-0.70;99.90;;;;;;5049797;28;20136;-61
2022/02/28 04:13:25;;;;;;;16.90;8.95;;;-0.70;99.90;;;;;;5051488;28;20052;-50
2022/02/28 04:15:51;;;;;;;16.42;9.07;;;-0.70;99.90;;;;;;5052143;28;20520;-49
2022/02/28 04:18:17;;;;;;;16.50;9.13;;;-0.70;99.90;;;;;;5042779;28;20041;-59
2022/02/28 04:20:43;;;;;;;14.40;8.73;;;-0.80;99.90;;;;;;5050803;28;20635;-54
2022/02/28 04:23:09;;;;;;;17.17;8.35;;;-0.80;99.90;;;;;;5049767;28;20119;-60
2022/02/28 04:25:35;;;;;;;16.58;9.35;;;-0.80;99.90;;;;;;5050934;28;20040;-58
2022/02/28 04:28:01;;;;;;;17.13;8.65;;;-0.90;99.90;;;;;;5033217;28;20072;-50
2022/02/28 04:30:27;;;;;;;15.82;9.57;;;-0.80;99.90;;;;;;5069319;28;20484;-58
2022/02/28 04:32:52;;;;;;;17.20;8.95;;;-0.80;99.90;;;;;;5049519;28;20047;-51
2022/02/28 04:35:18;;;;;;;16.63;9.02;;;-0.70;99.90;;;;;;5047590;28;20083;-53
2022/02/28 04:37:46;;;;;;;19.70;9.63;;;-0.70;99.90;;;;;;5050498;28;20509;-51
2022/02/28 04:40:12;;;;;;;15.13;9.02;;;-0.80;99.90;;;;;;5067888;28;20528;-58
2022/02/28 04:42:38;;;;;;;16.05;8.63;;;-0.80;99.90;;;;;;5050650;28;20132;-50
2022/02/28 04:45:05;;;;;;;18.13;9.50;;;-0.80;99.90;;;;;;5067294;28;20123;-61
2022/02/28 04:47:31;;;;;;;18.58;10.05;;;-0.90;99.90;;;;;;5051447;28;20518;-56
2022/02/28 04:49:57;;;;;;;19.90;9.25;;;-0.90;99.90;;;;;;5049465;28;20044;-49
2022/02/28 04:52:22;;;;;;;17.05;9.48;;;-1.00;99.90;;;;;;5049888;28;20045;-52
2022/02/28 04:54:48;;;;;;;21.38;9.43;;;-1.00;99.90;;;;;;5064892;28;20033;-53
2022/02/28 04:57:14;;;;;;;15.55;9.05;;;-1.00;99.90;;;;;;5045549;28;20084;-50
2022/02/28 04:59:41;;;;;;;19.83;9.55;;;-1.00;99.90;;;;;;5068830;28;20041;-61
2022/02/28 05:02:07;;;;;;;19.10;9.63;;;-1.10;99.90;;;;;;5048485;28;20615;-58
2022/02/28 05:04:33;;;;;;;19.50;9.10;;;-1.00;99.90;;;;;;5034207;28;20422;-56
2022/02/28 05:06:59;;;;;;;19.58;10.15;;;-1.00;99.90;;;;;;5049456;28;20052;-49
2022/02/28 05:09:24;;;;;;;20.60;9.10;;;-1.00;99.90;;;;;;5068452;28;20040;-56
2022/02/28 05:11:50;;;;;;;19.42;10.80;;;-1.10;99.90;;;;;;5032877;28;20079;-48
2022/02/28 05:14:16;;;;;;;16.23;9.77;;;-1.10;99.90;;;;;;5049155;28;20053;-63
2022/02/28 05:16:42;;;;;;;19.70;10.35;;;-1.10;99.90;;;;;;5050284;28;20129;-49
2022/02/28 05:19:08;;;;;;;15.75;9.75;;;-1.10;99.90;;;;;;5049109;28;20213;-63
2022/02/28 05:21:35;;;;;;;20.30;9.88;;;-1.20;99.90;;;;;;5050734;28;20052;-54
2022/02/28 05:24:02;;;;;;;20.45;10.52;;;-1.20;99.90;;;;;;5048642;28;20063;-60
2022/02/28 05:26:27;;;;;;;21.10;9.95;;;-1.20;99.90;;;;;;5067972;28;20521;-63
2022/02/28 05:28:53;;;;;;;16.15;9.60;;;-1.10;99.90;;;;;;5058674;28;20119;-52
2022/02/28 05:31:19;;;;;;;18.50;9.73;;;-1.10;99.90;;;;;;5048595;28;20040;-54
2022/02/28 05:33:45;;;;;;;21.35;10.38;;;-1.10;99.90;;;;;;5048626;28;20368;-55
2022/02/28 05:36:11;;;;;;;16.80;9.32;;;-1.10;99.90;;;;;;5030271;28;20486;-53
2022/02/28 05:38:36;;;;;;;20.55;10.05;;;-1.10;99.90;;;;;;5066726;28;20036;-52
2022/02/28 05:41:03;;;;;;;19.60;10.25;;;-1.10;99.90;;;;;;5066498;28;20040;-59
2022/02/28 05:43:29;;;;;;;19.55;9.82;;;-1.10;99.90;;;;;;5049444;28;20506;-51
2022/02/28 05:45:54;;;;;;;19.98;10.27;;;-1.00;99.90;;;;;;5063810;28;20083;-65
2022/02/28 05:48:20;;;;;;;19.25;11.15;;;-1.00;99.90;;;;;;5067698;28;20036;-50
2022/02/28 05:50:46;;;;;;;20.65;10.32;;;-1.10;99.90;;;;;;5057698;28;20386;-54
2022/02/28 05:53:12;;;;;;;17.48;9.57;;;-1.10;99.90;;;;;;5075936;28;20140;-53
2022/02/28 05:55:38;;;;;;;18.55;10.75;;;-1.10;99.90;;;;;;5031706;28;20086;-60
2022/02/28 05:58:04;;;;;;;23.05;10.65;;;-1.10;99.90;;;;;;5065931;28;20048;-59
2022/02/28 06:00:30;;;;;;;20.70;10.63;;;-1.10;99.90;;;;;;5067093;28;20113;-59
2022/02/28 06:02:56;;;;;;;16.50;10.20;;;-1.10;99.90;;;;;;5065849;28;20048;-58
2022/02/28 06:05:22;;;;;;;20.10;11.13;;;-1.10;99.90;;;;;;5048513;28;20055;-50
2022/02/28 06:07:48;;;;;;;20.77;10.77;;;-1.10;99.90;;;;;;5066473;28;20040;-59
2022/02/28 06:10:14;;;;;;;22.83;10.45;;;-1.20;99.90;;;;;;5049094;28;20049;-52
2022/02/28 06:12:40;;;;;;;19.55;10.13;;;-1.20;99.90;;;;;;5048283;28;20301;-56
2022/02/28 06:15:07;;;;;;;20.50;10.10;;;-1.10;99.90;;;;;;5049039;28;20052;-50
2022/02/28 06:17:33;;;;;;;19.63;10.35;;;-1.20;99.90;;;;;;5048548;28;20056;-56
2022/02/28 06:19:58;;;;;;;23.95;10.98;;;-1.20;99.90;;;;;;5047820;28;20123;-53
2022/02/28 06:22:25;;;;;;;18.13;11.50;;;-1.20;99.90;;;;;;5066899;28;20055;-53
2022/02/28 06:24:51;;;;;;;20.02;10.38;;;-1.20;99.90;;;;;;5048008;28;20055;-61
2022/02/28 06:27:17;;;;;;;23.63;10.23;;;-1.20;99.90;;;;;;5066413;28;20325;-55
2022/02/28 06:29:43;;;;;;;19.10;11.00;;;-1.20;99.90;;;;;;5047841;28;20040;-54
2022/02/28 06:32:10;;;;;;;22.38;10.15;;;-1.10;99.90;;;;;;5047908;28;20427;-51
2022/02/28 06:34:36;;;;;;;23.38;11.00;;;-1.10;99.90;;;;;;5066113;28;20055;-64
2022/02/28 06:37:02;;;;;;;14.90;9.15;;;-1.00;99.90;;;;;;5047857;28;20419;-50
2022/02/28 06:39:28;;;;;;;17.95;10.98;;;-0.90;99.90;;;;;;5066810;28;20068;-57
2022/02/28 06:41:54;;;;;;;15.73;10.65;;;-0.90;99.90;;;;;;5065575;28;20095;-50
2022/02/28 06:44:20;;;;;;;18.70;11.00;;;-0.90;99.90;;;;;;5066202;28;20438;-55
2022/02/28 06:46:46;;;;;;;22.75;9.95;;;-0.90;99.90;;;;;;5047384;28;20037;-54
2022/02/28 06:49:11;;;;;;;20.55;9.70;;;-0.80;99.90;;;;;;5048412;28;20101;-58
2022/02/28 06:51:37;;;;;;;19.10;10.63;;;-0.80;99.90;;;;;;5048101;28;20094;-51
2022/02/28 06:54:03;;;;;;;21.80;10.15;;;-0.70;99.90;;;;;;5047624;28;20472;-57
2022/02/28 06:56:29;;;;;;;24.38;12.07;;;-0.70;99.90;;;;;;5061105;28;20048;-58
2022/02/28 06:58:55;;;;;;;26.27;10.63;;;-0.60;99.90;;;;;;5047402;28;20414;-54
2022/02/28 07:01:21;;;;;;;24.67;11.00;;;-0.60;99.90;;;;;;5048031;28;20056;-51
2022/02/28 07:03:47;;;;;;;18.90;12.23;;;-0.60;99.90;;;;;;5030807;28;20593;-54
2022/02/28 07:06:20;;;;;;;20.92;10.93;;;-0.50;99.90;;;;;;5047519;28;20613;-51
2022/02/28 07:08:47;;;;;;;24.73;11.95;;;-0.50;99.90;;;;;;5047480;28;20040;-50
2022/02/28 07:11:14;;;;;;;27.70;12.32;;;-0.40;99.90;;;;;;5065175;28;20537;-54
2022/02/28 07:13:40;;;;;;;23.38;12.38;;;-0.30;99.90;;;;;;5046137;28;20550;-59
2022/02/28 07:16:06;;;;;;;27.08;12.43;;;-0.20;99.90;;;;;;5046608;28;20051;-55
2022/02/28 07:18:32;;;;;;;27.70;12.43;;;-0.10;99.90;;;;;;5065144;28;20109;-61
2022/02/28 07:20:58;;;;;;;22.58;11.57;;;0.00;99.90;;;;;;5046966;28;20048;-55
2022/02/28 07:23:24;;;;;;;22.75;12.95;;;0.00;99.90;;;;;;5047791;28;20044;-61
2022/02/28 07:25:50;;;;;;;31.00;12.57;;;0.10;99.90;;;;;;5047317;28;20064;-53
2022/02/28 07:28:16;;;;;;;24.75;12.52;;;0.20;99.90;;;;;;5047534;28;20557;-61
2022/02/28 07:30:42;;;;;;;27.27;12.52;;;0.30;99.90;;;;;;5030333;28;20494;-58
2022/02/28 07:33:07;;;;;;;23.27;13.18;;;0.30;99.90;;;;;;5047249;28;20052;-48
2022/02/28 07:35:33;;;;;;;26.17;12.90;;;0.40;99.90;;;;;;5057310;28;20033;-50
2022/02/28 07:37:59;;;;;;;25.65;13.27;;;0.50;99.90;;;;;;5013490;28;20076;-55
2022/02/28 07:40:25;;;;;;;24.83;13.50;;;0.50;99.90;;;;;;5047379;28;20127;-55
2022/02/28 07:42:51;;;;;;;20.98;11.75;;;0.60;99.90;;;;;;5029978;28;20131;-58
2022/02/28 07:45:17;;;;;;;24.75;13.18;;;0.70;99.90;;;;;;5060658;28;20036;-54
2022/02/28 07:47:43;;;;;;;22.70;13.82;;;0.70;99.90;;;;;;5046136;28;20488;-51
2022/02/28 07:50:09;;;;;;;25.50;14.93;;;0.80;99.90;;;;;;5045126;28;20053;-57
2022/02/28 07:52:35;;;;;;;23.17;13.40;;;0.80;99.90;;;;;;5045669;28;20041;-62
2022/02/28 07:55:01;;;;;;;22.17;13.18;;;0.90;99.90;;;;;;5040662;28;20090;-57
2022/02/28 07:57:27;;;;;;;20.85;12.00;;;1.00;99.90;;;;;;5058461;28;20045;-51
2022/02/28 07:59:56;;;;;;;21.60;11.25;;;1.00;99.90;;;;;;5060526;28;20033;-63
2022/02/28 08:02:23;;;;;;;24.77;11.63;;;1.10;99.90;;;;;;5046911;28;20105;-62
2022/02/28 08:04:48;;;;;;;22.33;13.07;;;1.20;99.90;;;;;;5029832;28;20103;-57
2022/02/28 08:07:14;;;;;;;21.98;12.38;;;1.30;99.90;;;;;;5043722;28;20040;-59
2022/02/28 08:09:40;;;;;;;22.88;12.55;;;1.40;99.90;;;;;;5056709;28;20045;-60
2022/02/28 08:12:06;;;;;;;27.05;13.18;;;1.40;99.90;;;;;;5013284;28;20056;-62
2022/02/28 08:14:32;;;;;;;22.08;13.07;;;1.50;99.90;;;;;;5047028;28;20398;-63
2022/02/28 08:16:57;;;;;;;23.05;13.05;;;1.60;99.90;;;;;;5030547;28;20036;-52
2022/02/28 08:19:25;;;;;;;25.20;12.70;;;1.70;99.90;;;;;;5036562;28;20049;-59
2022/02/28 08:21:50;;;;;;;22.83;11.88;;;1.80;99.90;;;;;;5002764;28;20056;-56
2022/02/28 08:24:17;;;;;;;21.90;12.60;;;1.90;99.90;;;;;;5003384;28;20107;-52
2022/02/28 08:26:44;;;;;;;25.58;13.40;;;2.00;99.90;;;;;;5023661;28;20041;-49
2022/02/28 08:29:09;;;;;;;27.25;14.55;;;2.10;99.90;;;;;;5008621;28;20326;-52
2022/02/28 08:31:35;;;;;;;25.88;13.57;;;2.20;99.90;;;;;;5029211;28;20630;-52
2022/02/28 08:34:01;;;;;;;25.10;14.13;;;2.40;99.90;;;;;;5048011;28;20107;-57
2022/02/28 08:36:26;;;;;;;27.15;13.35;;;2.50;99.90;;;;;;5014256;28;20515;-52
2022/02/28 08:38:52;;;;;;;23.48;14.75;;;2.60;99.90;;;;;;5030065;28;20045;-57
2022/02/28 08:41:19;;;;;;;29.75;14.95;;;2.70;99.90;;;;;;5048357;28;20041;-56
2022/02/28 08:43:45;;;;;;;25.52;14.40;;;2.80;99.90;;;;;;5029941;28;20557;-55
2022/02/28 08:46:11;;;;;;;25.05;14.02;;;3.00;99.90;;;;;;5030253;28;20052;-65
2022/02/28 08:48:36;;;;;;;22.58;13.07;;;3.00;99.90;;;;;;5033040;28;20084;-55
2022/02/28 08:51:02;;;;;;;25.35;13.90;;;3.10;99.90;;;;;;5030720;28;20049;-53
2022/02/28 08:53:28;;;;;;;24.55;14.50;;;3.20;99.90;;;;;;5018757;28;20051;-51
2022/02/28 08:55:54;;;;;;;20.67;12.50;;;3.30;99.90;;;;;;5048156;28;20041;-58
2022/02/28 08:58:23;;;;;;;23.85;12.77;;;3.40;99.90;;;;;;5029931;28;20076;-65
2022/02/28 09:00:49;;;;;;;22.83;12.35;;;3.50;99.90;;;;;;5029805;28;20084;-52
2022/02/28 09:03:15;;;;;;;19.30;10.73;;;3.60;99.90;;;;;;5027954;28;20045;-51
2022/02/28 09:05:40;;;;;;;20.60;11.43;;;3.70;99.90;;;;;;5025599;28;20494;-64
2022/02/28 09:08:06;;;;;;;18.33;10.77;;;3.80;99.90;;;;;;5041172;28;20123;-50
2022/02/28 09:10:32;;;;;;;22.52;10.10;;;3.90;99.90;;;;;;5027385;28;20770;-51
2022/02/28 09:12:58;;;;;;;22.20;12.13;;;4.00;99.90;;;;;;5045391;28;20049;-62
2022/02/28 09:15:24;;;;;;;19.13;11.75;;;4.00;99.90;;;;;;5020782;28;20088;-57
2022/02/28 09:17:50;;;;;;;17.63;10.98;;;4.20;99.90;;;;;;5022777;28;20045;-49
2022/02/28 09:20:15;;;;;;;8.48;5.55;;;4.30;99.90;;;;;;5024117;28;20049;-55
2022/02/28 09:22:41;;;;;;;14.77;8.23;;;4.30;99.90;;;;;;5048626;28;20056;-57
2022/02/28 09:25:08;;;;;;;19.77;11.70;;;4.30;99.90;;;;;;5050161;28;20391;-62
2022/02/28 09:27:34;;;;;;;15.00;9.45;;;4.40;99.90;;;;;;5065886;28;20139;-58
2022/02/28 09:30:02;;;;;;;17.83;9.30;;;4.50;99.90;;;;;;5067641;28;20199;-66
2022/02/28 09:32:27;;;;;;;21.23;9.05;;;4.60;99.90;;;;;;5067247;28;20048;-62
2022/02/28 09:34:53;;;;;;;14.27;9.40;;;4.70;99.90;;;;;;5049871;28;20127;-54
2022/02/28 09:37:19;;;;;;;17.48;10.90;;;4.80;99.90;;;;;;5049278;28;20040;-56
2022/02/28 09:39:44;;;;;;;14.57;8.85;;;4.80;99.90;;;;;;5048771;28;20048;-65
2022/02/28 09:42:12;;;;;;;10.80;7.55;;;4.90;99.90;;;;;;5016127;28;20827;-50
2022/02/28 09:44:40;;;;;;;18.10;11.60;;;5.00;99.90;;;;;;5046490;28;20052;-68
2022/02/28 09:47:08;;;;;;;17.13;8.60;;;5.10;99.90;;;;;;5066103;28;20740;-67
2022/02/28 09:49:33;;;;;;;7.97;4.32;;;5.20;99.90;;;;;;5063932;28;20047;-59
2022/02/28 09:51:59;;;;;;;17.25;7.90;;;5.30;99.90;;;;;;5048242;28;20041;-65
2022/02/28 09:54:25;;;;;;;13.90;8.73;;;5.30;99.90;;;;;;5032275;28;20041;-65
2022/02/28 09:56:52;;;;;;;6.47;4.18;;;5.40;99.90;;;;;;5049778;28;20132;-53
2022/02/28 09:59:19;;;;;;;9.48;5.28;;;5.50;99.90;;;;;;5063513;28;20040;-68
2022/02/28 10:01:46;;;;;;;14.23;9.13;;;5.60;99.90;;;;;;5053899;28;20086;-64
2022/02/28 10:04:16;;;;;;;14.43;8.15;;;5.70;99.90;;;;;;5069786;28;20879;-60
2022/02/28 10:06:46;;;;;;;6.67;4.97;;;5.70;99.90;;;;;;5049396;28;20056;-57
2022/02/28 10:09:16;;;;;;;;;;;5.80;99.90;;;;;;5050318;28;20041;-59
2022/02/28 10:11:43;;;;;;;9.68;5.32;;;5.90;99.90;;;;;;5054728;28;19933;-62
2022/02/28 10:14:10;;;;;;;5.82;4.95;;;5.90;99.90;;;;;;5047977;28;20110;-61
2022/02/28 10:16:38;;;;;;;8.70;5.15;;;5.90;99.90;;;;;;5049044;28;20391;-65
2022/02/28 10:19:25;;;;;;;8.98;4.40;;;6.10;99.90;;;;;;5065799;28;20051;-61
2022/02/28 10:21:53;;;;;;;15.57;7.60;;;6.20;99.90;;;;;;5031573;28;20056;-61
2022/02/28 10:24:28;;;;;;;8.93;5.97;;;6.20;99.90;;;;;;5029207;28;20053;-67
2022/02/28 10:26:57;;;;;;;12.10;8.05;;;6.20;99.90;;;;;;5044872;28;20041;-58
2022/02/28 10:29:25;;;;;;;15.25;7.80;;;6.30;99.90;;;;;;5029632;28;20041;-57
2022/02/28 10:31:55;;;;;;;9.57;5.72;;;6.40;99.90;;;;;;5047233;28;20048;-60
2022/02/28 10:34:24;;;;;;;16.65;7.72;;;6.40;99.90;;;;;;5047832;28;20162;-66
2022/02/28 10:36:55;;;;;;;11.82;7.45;;;6.60;99.90;;;;;;5047992;28;20045;-61
2022/02/28 10:39:43;;;;;;;17.30;8.80;;;6.70;99.90;;;;;;5048294;28;20703;-68
2022/02/28 10:42:18;;;;;;;12.88;6.43;;;6.70;99.90;;;;;;5037011;28;20503;-65
2022/02/28 10:44:45;;;;;;;11.07;7.70;;;6.80;99.90;;;;;;5030753;28;20056;-64
2022/02/28 10:47:14;;;;;;;6.60;4.35;;;6.90;99.90;;;;;;5048857;28;20402;-68
2022/02/28 10:50:04;;;;;;;10.57;4.38;;;6.90;99.90;;;;;;5046932;28;20057;-68
2022/02/28 10:52:29;;;;;;;16.30;7.25;;;7.00;99.90;;;;;;5033816;28;20048;-63
2022/02/28 10:55:04;;;;;;;9.48;6.40;;;7.00;99.90;;;;;;5063490;28;20052;-62
2022/02/28 10:57:30;;;;;;;10.98;7.85;;;7.00;99.90;;;;;;5061749;28;20056;-57
2022/02/28 10:59:56;;;;;;;17.23;8.25;;;7.10;99.90;;;;;;5064908;28;20048;-65
2022/02/28 11:02:33;;;;;;;6.85;4.68;;;7.20;99.90;;;;;;5061905;28;20037;-68
2022/02/28 11:05:19;;;;;;;12.13;6.97;;;7.40;99.90;;;;;;5041970;28;20049;-62
2022/02/28 11:07:48;;;;;;;8.15;5.75;;;7.40;99.90;;;;;;5047722;28;20056;-64
2022/02/28 11:10:16;;;;;;;11.43;8.80;;;7.40;99.90;;;;;;5039992;28;20445;-57
2022/02/28 11:12:42;;;;;;;11.48;6.07;;;7.50;99.90;;;;;;5030096;28;20127;-61
2022/02/28 11:15:13;;;;;;;14.15;7.97;;;7.60;99.90;;;;;;5046053;28;20046;-64
2022/02/28 11:17:39;;;;;;;11.13;6.75;;;7.70;99.90;;;;;;5045141;28;20045;-68
2022/02/28 11:20:11;;;;;;;10.60;7.10;;;7.80;97.40;;;;;;5030723;28;20128;-59
2022/02/28 11:22:55;;;;;;;11.15;6.97;;;7.80;99.90;;;;;;5025285;28;20065;-63
2022/02/28 11:25:24;;;;;;;9.88;6.38;;;7.80;99.90;;;;;;5043955;28;20053;-62
2022/02/28 11:27:57;;;;;;;12.98;7.25;;;7.90;98.80;;;;;;5044793;28;20151;-59
2022/02/28 11:30:29;;;;;;;10.25;6.32;;;7.90;97.70;;;;;;5028983;28;20155;-59
2022/02/28 11:33:05;;;;;;;11.93;6.35;;;7.90;99.90;;;;;;5011905;28;20053;-64
2022/02/28 11:35:38;;;;;;;10.20;7.00;;;8.10;99.90;;;;;;5025102;28;20447;-61
2022/02/28 11:38:15;;;;;;;8.73;5.90;;;8.20;99.70;;;;;;5028909;28;20049;-59
2022/02/28 11:40:44;;;;;;;8.15;6.28;;;8.20;96.70;;;;;;5023901;28;20049;-65
2022/02/28 11:43:22;;;;;;;12.20;6.43;;;8.30;99.90;;;;;;5025192;28;20044;-58
2022/02/28 11:46:09;;;;;;;7.50;5.35;;;8.30;95.30;;;;;;5020365;28;20448;-65
2022/02/28 11:48:47;;;;;;;9.73;6.63;;;8.30;94.00;;;;;;5026164;28;20056;-62
2022/02/28 11:51:33;;;;;;;10.75;6.40;;;8.40;95.10;;;;;;5011775;28;20051;-62
2022/02/28 11:54:28;;;;;;;10.27;6.80;;;8.40;92.00;;;;;;5027290;28;20048;-58
2022/02/28 11:56:56;;;;;;;9.88;5.50;;;8.40;95.20;;;;;;5026746;28;20049;-59
2022/02/28 11:59:26;;;;;;;7.72;3.95;;;8.50;94.30;;;;;;5011166;28;20052;-64
2022/02/28 12:01:57;;;;;;;8.27;5.45;;;8.60;97.80;;;;;;5027100;28;20057;-65
2022/02/28 12:04:32;;;;;;;8.90;5.70;;;8.70;93.10;;;;;;5030269;28;20131;-60
2022/02/28 12:07:03;;;;;;;8.30;5.47;;;8.70;94.30;;;;;;5046345;28;20441;-64
2022/02/28 12:10:07;;;;;;;9.80;4.65;;;8.70;92.90;;;;;;5059835;28;20045;-65
2022/02/28 12:12:38;;;;;;;5.97;4.30;;;8.80;93.80;;;;;;5034271;28;20049;-60
2022/02/28 12:15:08;;;;;;;6.20;3.63;;;8.90;90.80;;;;;;5026612;28;20610;-63
2022/02/28 12:23:52;;;;;;;8.70;5.45;;;8.90;93.20;;;;;;5031772;28;20650;-62
2022/02/28 12:26:18;;;;;;;11.63;6.53;;;9.10;93.60;;;;;;5045386;28;20075;-62
2022/02/28 12:28:49;;;;;;;11.38;6.15;;;9.10;86.50;;;;;;5049491;28;20084;-61
2022/02/28 12:32:04;;;;;;;14.25;6.55;;;9.20;85.30;;;;;;5044250;28;20049;-56
2022/02/28 12:34:37;;;;;;;8.65;5.80;;;9.30;86.70;;;;;;5012228;28;20059;-66
2022/02/28 12:37:03;;;;;;;10.43;5.80;;;9.40;86.30;;;;;;5048850;28;20088;-61
2022/02/28 12:39:32;;;;;;;8.40;4.63;;;9.40;83.60;;;;;;5056412;28;20091;-63
2022/02/28 12:42:07;;;;;;;10.35;5.57;;;9.40;85.20;;;;;;5071214;23;20067;-62
2022/02/28 12:44:40;;;;;;;9.45;5.80;;;9.40;90.90;;;;;;5058352;28;20093;-67
2022/02/28 12:47:06;;;;;;;11.57;6.63;;;9.50;90.10;;;;;;5056399;28;20371;-60
2022/02/28 12:49:34;;;;;;;11.07;6.47;;;9.60;90.30;;;;;;5062601;28;20616;-60